• Join FlightAware (Why Join?)
  • Login
  • US Flag 
06:06AM EDT


 

Airport Tracker/Info


-or-


 

Live Flight TrackerFlight Track Log ✈ DAL268 ✈ 23-May-2013 ✈ KJFK - LLBG / TLV

Flight Track Log - Related Links

Times and Time Zones

All times are in EDT time to prevent confusion due to time zone crossing. See the DAL268 flight status page for this flight to view local times or setup timezone preferences in your user account.

Time Position Orientation Groundspeed Altitude Reporting Facility
EDT Latitude Longitude Course Direction KTS MPH feet Rate Location/Type
12:28AM 42.4690 -69.2310 48° Northeast 558 642 33,000  Level FlightAware
12:29AM 42.5250 -69.1470 48° Northeast 558 642 33,000  Level FlightAware
12:29AM 42.6070 -69.0170 49° Northeast 551 634 33,000  Level FlightAware
12:30AM 42.6610 -68.9330 49° Northeast 551 634 33,000  Level FlightAware
12:31AM 42.7180 -68.8440 49° Northeast 551 634 33,000  Level FlightAware
12:31AM 42.8270 -68.6750 49° Northeast 551 634 33,000  Level FlightAware
12:32AM 42.8900 -68.5750 49° Northeast 550 633 33,000  Level FlightAware
12:33AM 42.9610 -68.4640 49° Northeast 550 633 33,000  Level FlightAware
12:34AM 43.0250 -68.3640 49° Northeast 549 632 33,000  Level FlightAware
12:34AM 43.0810 -68.2740 50° Northeast 549 632 33,000  Level FlightAware
12:35AM 43.1550 -68.1580 49° Northeast 549 632 33,000  Level FlightAware
12:36AM 43.2250 -68.0460 49° Northeast 549 632 33,000  Level FlightAware
12:36AM 43.2820 -67.9570 49° Northeast 549 632 33,000  Level FlightAware
12:37AM 43.3880 -67.7830 50° Northeast 551 634 33,000  Level FlightAware
12:38AM 43.4560 -67.6730 50° Northeast 551 634 33,000  Level FlightAware
12:38AM 43.5210 -67.5670 50° Northeast 551 634 33,000  Level FlightAware
12:39AM 43.5970 -67.4430 50° Northeast 555 639 33,000  Level FlightAware
12:40AM 43.6620 -67.3370 50° Northeast 555 639 33,000  Level FlightAware
12:41AM 43.7380 -67.2120 50° Northeast 554 638 33,000  Level FlightAware
12:41AM 43.8030 -67.1050 50° Northeast 553 636 33,000  Level FlightAware
12:42AM 43.8780 -66.9800 50° Northeast 553 636 33,000  Level FlightAware
12:43AM 43.9450 -66.8700 50° Northeast 553 636 33,000  Level FlightAware
12:43AM 44.0090 -66.7620 50° Northeast 552 635 33,000  Level FlightAware
12:44AM 44.0840 -66.6360 50° Northeast 547 629 33,000  Level FlightAware
12:45AM 44.1480 -66.5280 50° Northeast 546 628 33,000  Level FlightAware
12:45AM 44.2200 -66.4050 51° Northeast 547 629 33,000  Level FlightAware
12:46AM 44.2850 -66.2940 51° Northeast 546 628 33,000  Level FlightAware
12:47AM 44.3480 -66.1850 51° Northeast 546 628 33,000  Level FlightAware
12:48AM 44.4200 -66.0620 51° Northeast 546 628 33,000  Level FlightAware
12:48AM 44.4850 -65.9490 51° Northeast 545 627 33,000  Level FlightAware
12:49AM 44.5490 -65.8390 51° Northeast 545 627 33,000  Level FlightAware
12:50AM 44.6210 -65.7150 51° Northeast 544 626 33,000  Level FlightAware
12:50AM 44.6830 -65.6050 52° Northeast 547 629 33,000  Level FlightAware
12:51AM 44.7560 -65.4780 51° Northeast 543 625 33,000  Level FlightAware
12:52AM 44.8180 -65.3680 52° Northeast 542 624 33,000  Level FlightAware
12:52AM 44.8810 -65.2570 51° Northeast 542 624 33,000  Level FlightAware
12:53AM 44.9530 -65.1290 51° Northeast 541 623 33,000  Level FlightAware
12:54AM 45.0210 -65.0070 52° Northeast 541 623 33,000  Level FlightAware
12:55AM 45.0830 -64.8970 51° Northeast 538 619 33,000  Level FlightAware
12:55AM 45.1450 -64.7870 51° Northeast 537 618 33,000  Level FlightAware
12:56AM 45.2060 -64.6780 52° Northeast 535 616 33,000  Level FlightAware
12:57AM 45.2790 -64.5470 52° Northeast 535 616 33,000  Level FlightAware
12:57AM 45.3440 -64.4280 52° Northeast 533 613 33,000  Level FlightAware
12:58AM 45.4180 -64.2930 52° Northeast 533 613 33,000  Level FlightAware
12:59AM 45.4990 -64.1450 52° Northeast 533 613 33,000  Level FlightAware
01:00AM 45.5500 -64.0510 52° Northeast 533 613 33,000  Level FlightAware
01:01AM 45.6020 -63.9560 52° Northeast 533 613 33,000  Level FlightAware
01:01AM 45.6540 -63.8620 52° Northeast 533 613 33,000  Level FlightAware
01:02AM 45.7180 -63.7440 52° Northeast 533 613 33,000  Level FlightAware
01:03AM 45.7570 -63.6730 52° Northeast 533 613 33,000  Level FlightAware
01:03AM 45.8210 -63.5540 52° Northeast 533 613 33,000  Level FlightAware
01:04AM 45.8730 -63.4590 52° Northeast 533 613 33,000  Level FlightAware
01:05AM 45.9250 -63.3640 52° Northeast 533 613 33,000  Level FlightAware
01:06AM 45.9890 -63.2460 52° Northeast 533 613 33,000  Level FlightAware
01:06AM 46.0950 -62.9630 62° Northeast 531 611 33,000  Level FlightAware
01:07AM 46.1620 -62.8270 55° Northeast 530 610 33,000  Level FlightAware
01:08AM 46.2300 -62.6880 55° Northeast 530 610 33,000  Level FlightAware
01:08AM 46.2920 -62.5620 55° Northeast 530 610 33,000  Level FlightAware
01:09AM 46.3560 -62.4280 55° Northeast 531 611 33,000  Level FlightAware
01:10AM 46.4120 -62.3120 55° Northeast 531 611 33,000  Level FlightAware
01:10AM 46.4760 -62.1800 55° Northeast 531 611 33,000  Level FlightAware
01:11AM 46.5290 -62.0680 55° Northeast 530 610 33,000  Level FlightAware
01:12AM 46.5860 -61.9480 55° Northeast 529 609 33,000  Level FlightAware
01:13AM 46.6500 -61.8130 55° Northeast 528 608 33,000  Level FlightAware
01:13AM 46.7050 -61.6960 56° Northeast 528 608 33,000  Level FlightAware
01:14AM 46.7660 -61.5670 55° Northeast 527 606 33,000  Level FlightAware
01:15AM 46.8210 -61.4490 56° Northeast 526 605 33,000  Level FlightAware
01:15AM 46.8760 -61.3300 56° Northeast 526 605 33,000  Level FlightAware
01:16AM 46.9380 -61.1950 56° Northeast 525 604 33,000  Level FlightAware
01:17AM 46.9910 -61.0790 56° Northeast 525 604 33,000  Level FlightAware
01:17AM 47.0510 -60.9470 56° Northeast 525 604 33,000  Level FlightAware
01:18AM 47.1040 -60.8310 56° Northeast 525 604 33,000  Level FlightAware
01:19AM 47.1570 -60.7140 56° Northeast 525 604 33,000  Level FlightAware
01:20AM 47.2130 -60.5900 56° Northeast 525 604 33,000  Level FlightAware
01:20AM 47.2600 -60.4890 56° Northeast 525 604 33,000  Level FlightAware
01:21AM 47.3060 -60.3890 56° Northeast 525 604 33,000  Level FlightAware
01:21AM 47.3710 -60.2380 58° Northeast 523 602 33,000  Level FlightAware
01:23AM 47.4580 -60.0410 57° Northeast 523 602 33,000  Level FlightAware
01:23AM 47.5060 -59.9340 56° Northeast 523 602 33,000  Level FlightAware
01:24AM 47.5520 -59.8330 56° Northeast 523 602 33,000  Level FlightAware
01:25AM 47.5980 -59.7320 56° Northeast 523 602 33,000  Level FlightAware
01:25AM 47.6440 -59.6310 56° Northeast 523 602 33,000  Level FlightAware
01:26AM 47.7020 -59.5040 56° Northeast 523 602 33,000  Level FlightAware
01:27AM 47.7830 -59.2980 60° Northeast 524 603 33,000  Level FlightAware
01:27AM 47.8460 -59.1510 57° Northeast 524 603 33,000  Level FlightAware
01:28AM 47.8990 -59.0270 57° Northeast 525 604 33,000  Level FlightAware
01:29AM 47.9500 -58.9060 58° Northeast 524 603 33,000  Level FlightAware
01:30AM 48.0100 -58.7650 58° Northeast 524 603 33,000  Level FlightAware
01:30AM 48.0620 -58.6430 57° Northeast 525 604 33,000  Level FlightAware
01:31AM 48.1140 -58.5190 58° Northeast 526 605 33,000  Level FlightAware
01:32AM 48.1590 -58.4110 58° Northeast 526 605 33,000  Level FlightAware
01:32AM 48.2170 -58.2720 58° Northeast 528 608 33,000  Level FlightAware
01:33AM 48.2810 -58.1160 58° Northeast 528 608 33,000  Level FlightAware
01:34AM 48.3300 -57.9900 60° Northeast 528 608 33,000  Level FlightAware
01:34AM 48.3780 -57.8640 60° Northeast 529 609 33,000  Level FlightAware
01:35AM 48.4340 -57.7190 60° Northeast 531 611 33,000  Level FlightAware
01:36AM 48.4840 -57.5920 59° Northeast 532 612 33,000  Level FlightAware
01:37AM 48.5380 -57.4500 60° Northeast 533 613 33,000  Level FlightAware
01:37AM 48.5880 -57.3180 60° Northeast 535 616 33,000  Level FlightAware
01:38AM 48.6380 -57.1880 60° Northeast 537 618 33,000  Level FlightAware
01:39AM 48.6940 -57.0400 60° Northeast 537 618 33,000  Level FlightAware
01:39AM 48.7420 -56.9130 60° Northeast 538 619 33,000  Level FlightAware
01:40AM 48.7980 -56.7630 60° Northeast 538 619 33,000  Level FlightAware
01:41AM 48.8460 -56.6350 60° Northeast 538 619 33,000  Level FlightAware
01:41AM 48.8970 -56.4990 60° Northeast 538 619 33,000  Level FlightAware
01:42AM 48.9520 -56.3530 60° Northeast 538 619 33,000  Level FlightAware
01:43AM 49.0010 -56.2200 61° Northeast 538 619 33,000  Level FlightAware
01:43AM 49.0480 -56.0890 61° Northeast 538 619 33,000  Level FlightAware
01:44AM 49.1020 -55.9390 61° Northeast 538 619 33,000  Level FlightAware
01:45AM 49.1490 -55.8090 61° Northeast 539 620 33,000  Level FlightAware
01:46AM 49.2040 -55.6540 61° Northeast 539 620 33,000  Level FlightAware
01:46AM 49.2510 -55.5200 62° Northeast 540 621 33,000  Level FlightAware
01:47AM 49.3040 -55.3690 62° Northeast 540 621 33,000  Level FlightAware
01:48AM 49.3520 -55.2330 62° Northeast 540 621 33,000  Level FlightAware
01:48AM 49.3990 -55.0980 62° Northeast 542 624 33,000  Level FlightAware
01:49AM 49.4520 -54.9470 62° Northeast 542 624 33,000  Level FlightAware
01:50AM 49.4990 -54.8100 62° Northeast 542 624 33,000  Level FlightAware
01:51AM 49.5510 -54.6580 62° Northeast 542 624 33,000  Level FlightAware
01:51AM 49.5980 -54.5230 62° Northeast 543 625 33,000  Level FlightAware
01:52AM 49.6450 -54.3820 63° Northeast 544 626 33,000  Level FlightAware
01:53AM 49.6890 -54.2520 62° Northeast 545 627 33,000  Level FlightAware
01:53AM 49.6833 -54.1000 62° Northeast 540 621 33,000  Level Moncton Center
01:54AM 49.7333 -54.0000 52° Northeast 540 621 33,000  Level Gander Center
01:54AM 49.8000 -53.8333 58° Northeast 550 633 33,000  Level Gander Center
01:55AM 49.8667 -53.6167 64° Northeast 540 621 33,100 120 Climbing Gander Center
02:01AM 50.2520 -52.5380 64° Northeast 538 619 34,000 120 Climbing FlightAware
02:02AM 50.3200 -52.3210 64° Northeast 537 618 34,000  Level FlightAware
02:03AM 50.3580 -52.2030 63° Northeast 537 618 34,000  Level FlightAware
02:03AM 50.4140 -52.0160 65° Northeast 537 618 34,000  Level FlightAware
02:04AM 50.4510 -51.8970 64° Northeast 537 618 34,000  Level FlightAware
02:05AM 50.4880 -51.7780 64° Northeast 537 618 34,000  Level FlightAware
02:05AM 50.5250 -51.6580 64° Northeast 537 618 34,000  Level FlightAware
02:06AM 50.5620 -51.5390 64° Northeast 537 618 34,000  Level FlightAware
02:07AM 50.6080 -51.3890 64° Northeast 537 618 34,000  Level FlightAware
02:08AM 50.6450 -51.2700 64° Northeast 537 618 34,000  Level FlightAware
02:08AM 50.6820 -51.1500 64° Northeast 537 618 34,000  Level FlightAware
02:09AM 50.7190 -51.0300 64° Northeast 537 618 34,000  Level FlightAware
02:10AM 50.7560 -50.9100 64° Northeast 537 618 34,000  Level FlightAware
02:10AM 50.8030 -50.7600 64° Northeast 537 618 34,000  Level FlightAware
02:11AM 50.8400 -50.6400 64° Northeast 537 618 34,000  Level FlightAware
02:12AM 50.9167 -50.2000 78° East 540 621 34,000  Level Gander Center
02:12AM 50.8770 -50.5190 64° Northeast 537 618 34,000  Level FlightAware
02:12AM 50.9140 -50.3990 64° Northeast 537 618 34,000  Level FlightAware
02:13AM 51.0000 -50.0000 77° East 539 620 34,000  Level ETMS Enhanced Traffic Management System
02:13AM 50.9667 -49.9667 71° East 540 621 34,000  Level Gander Center
02:14AM 51.0167 -49.7333 77° East 540 621 34,000  Level Gander Center
02:14AM 51.0500 -49.5500 74° East 550 633 34,000  Level Gander Center
02:15AM 51.0075 -49.9456 78° East  Level FlightAware Approximate
02:16AM 51.0383 -49.7185 78° East  Level FlightAware Approximate
02:16AM 51.0500 -49.2500 90° East 550 633 34,000  Level Gander Center
02:16AM 51.0667 -49.0500 82° East 550 633 34,000  Level Gander Center
02:17AM 51.0688 -49.4910 78° East  Level FlightAware Approximate
02:19AM 51.1639 -48.6262 70° East  Level FlightAware Approximate
02:26AM 51.3829 -47.0210 79° East  Level FlightAware Approximate
02:27AM 51.4097 -46.7901 79° East  Level FlightAware Approximate
02:28AM 51.4359 -46.5590 80° East  Level FlightAware Approximate
02:29AM 51.4623 -46.3277 79° East  Level FlightAware Approximate
02:30AM 51.4890 -46.0964 79° East  Level FlightAware Approximate
02:31AM 51.5152 -45.8648 80° East  Level FlightAware Approximate
02:32AM 51.5409 -45.6330 80° East  Level FlightAware Approximate
02:33AM 51.5652 -45.4006 81° East  Level FlightAware Approximate
02:34AM 51.5884 -45.1678 81° East  Level FlightAware Approximate
02:35AM 51.6112 -44.9348 81° East  Level FlightAware Approximate
02:36AM 51.6335 -44.7016 81° East  Level FlightAware Approximate
02:37AM 51.6554 -44.4681 81° East  Level FlightAware Approximate
02:38AM 51.6768 -44.2344 82° East  Level FlightAware Approximate
02:39AM 51.6977 -44.0005 82° East  Level FlightAware Approximate
02:40AM 51.7182 -43.7664 82° East  Level FlightAware Approximate
02:41AM 51.7394 -43.5323 82° East  Level FlightAware Approximate
02:42AM 51.7600 -43.2980 82° East  Level FlightAware Approximate
02:43AM 51.7802 -43.0635 82° East  Level FlightAware Approximate
02:44AM 51.8000 -42.8288 82° East  Level FlightAware Approximate
02:45AM 51.8192 -42.5939 82° East  Level FlightAware Approximate
02:46AM 51.8380 -42.3587 83° East  Level FlightAware Approximate
02:47AM 51.8564 -42.1234 83° East  Level FlightAware Approximate
02:48AM 51.8742 -41.8879 83° East  Level FlightAware Approximate
02:49AM 51.8916 -41.6522 83° East  Level FlightAware Approximate
02:50AM 51.9085 -41.4164 83° East  Level FlightAware Approximate
02:51AM 51.9250 -41.1804 83° East  Level FlightAware Approximate
02:52AM 51.9410 -40.9441 84° East  Level FlightAware Approximate
02:53AM 51.9565 -40.7078 84° East  Level FlightAware Approximate
02:54AM 51.9715 -40.4712 84° East  Level FlightAware Approximate
02:55AM 51.9861 -40.2345 84° East  Level FlightAware Approximate
02:56AM 52.0001 -39.9977 86° East  Level FlightAware Approximate
02:56AM 52.0000 -40.0000 86° East 553 636 34,000  Level ETMS Enhanced Traffic Management System
02:57AM 52.0099 -39.7602 86° East  Level FlightAware Approximate
02:58AM 52.0189 -39.5330 86° East  Level FlightAware Approximate
02:59AM 52.0274 -39.3057 86° East  Level FlightAware Approximate
03:00AM 52.0355 -39.0783 87° East  Level FlightAware Approximate
03:01AM 52.0431 -38.8508 87° East  Level FlightAware Approximate
03:02AM 52.0678 -38.0030 88° East 553 636 34,000  Level FlightAware Transoceanic
03:03AM 52.0738 -37.7530 88° East 553 636 34,000  Level FlightAware Transoceanic
03:04AM 52.0794 -37.5030 88° East 553 636 34,000  Level FlightAware Transoceanic
03:05AM 52.0844 -37.2528 88° East 553 636 34,000  Level FlightAware Transoceanic
03:06AM 52.0890 -37.0027 88° East 553 636 34,000  Level FlightAware Transoceanic
03:07AM 52.0929 -36.7524 89° East 553 636 34,000  Level FlightAware Transoceanic
03:08AM 52.0964 -36.5022 89° East 553 636 34,000  Level FlightAware Transoceanic
03:09AM 52.0993 -36.2519 89° East 553 636 34,000  Level FlightAware Transoceanic
03:10AM 52.1017 -36.0015 89° East 553 636 34,000  Level FlightAware Transoceanic
03:11AM 52.1035 -35.7512 89° East 553 636 34,000  Level FlightAware Transoceanic
03:12AM 52.1049 -35.5008 90° East 553 636 34,000  Level FlightAware Transoceanic
03:13AM 52.1057 -35.2504 90° East 553 636 34,000  Level FlightAware Transoceanic
03:14AM 52.1059 -35.0000 90° East 553 636 34,000  Level FlightAware Transoceanic
03:15AM 52.1057 -34.7496 90° East 553 636 34,000  Level FlightAware Transoceanic
03:16AM 52.1049 -34.4992 90° East 553 636 34,000  Level FlightAware Transoceanic
03:17AM 52.1035 -34.2488 91° East 553 636 34,000  Level FlightAware Transoceanic
03:18AM 52.1017 -33.9985 91° East 553 636 34,000  Level FlightAware Transoceanic
03:19AM 52.0993 -33.7481 91° East 553 636 34,000  Level FlightAware Transoceanic
03:20AM 52.0964 -33.4978 91° East 553 636 34,000  Level FlightAware Transoceanic
03:21AM 52.0929 -33.2476 91° East 553 636 34,000  Level FlightAware Transoceanic
03:22AM 52.0890 -32.9973 92° East 553 636 34,000  Level FlightAware Transoceanic
03:23AM 52.0844 -32.7472 92° East 553 636 34,000  Level FlightAware Transoceanic
03:24AM 52.0794 -32.4970 92° East 553 636 34,000  Level FlightAware Transoceanic
03:25AM 52.0738 -32.2470 92° East 553 636 34,000  Level FlightAware Transoceanic
03:26AM 52.0678 -31.9970 92° East 553 636 34,000  Level FlightAware Transoceanic
03:27AM 52.0611 -31.7470 93° East 553 636 34,000  Level FlightAware Transoceanic
03:28AM 52.0540 -31.4972 93° East 553 636 34,000  Level FlightAware Transoceanic
03:29AM 52.0463 -31.2474 93° East 553 636 34,000  Level FlightAware Transoceanic
03:30AM 52.0381 -30.9977 93° East 553 636 34,000  Level FlightAware Transoceanic
03:31AM 52.0294 -30.7481 93° East 553 636 34,000  Level FlightAware Transoceanic
03:32AM 52.0201 -30.4986 94° East 553 636 34,000  Level FlightAware Transoceanic
03:33AM 52.0103 -30.2493 94° East 553 636 34,000  Level FlightAware Transoceanic
03:34AM 52.0009 -30.0221 94° East  Level FlightAware Approximate
03:35AM 51.9911 -29.7951 94° East  Level FlightAware Approximate
03:36AM 52.0068 -29.8171 86° East  Level FlightAware Approximate
03:37AM 52.0149 -29.5898 87° East  Level FlightAware Approximate
03:38AM 52.0226 -29.3624 87° East  Level FlightAware Approximate
03:39AM 52.0298 -29.1349 87° East  Level FlightAware Approximate
03:39AM 52.0000 -30.0000 86° East 527 606 34,000  Level ETMS Enhanced Traffic Management System
03:40AM 52.0366 -28.9070 87° East  Level FlightAware Approximate
03:41AM 52.0430 -28.6791 87° East  Level FlightAware Approximate
03:42AM 52.0489 -28.4510 87° East  Level FlightAware Approximate
03:43AM 52.0544 -28.2229 88° East  Level FlightAware Approximate
03:44AM 52.0594 -27.9948 88° East  Level FlightAware Approximate
03:45AM 52.0768 -27.6220 88° East 527 606 34,000  Level FlightAware Transoceanic
03:46AM 52.0819 -27.3839 88° East 527 606 34,000  Level FlightAware Transoceanic
03:47AM 52.0864 -27.1456 88° East 527 606 34,000  Level FlightAware Transoceanic
03:48AM 52.0905 -26.9073 88° East 527 606 34,000  Level FlightAware Transoceanic
03:49AM 52.0941 -26.6690 89° East 527 606 34,000  Level FlightAware Transoceanic
03:50AM 52.0973 -26.4307 89° East 527 606 34,000  Level FlightAware Transoceanic
03:51AM 52.0999 -26.1922 89° East 527 606 34,000  Level FlightAware Transoceanic
03:52AM 52.1021 -25.9538 89° East 527 606 34,000  Level FlightAware Transoceanic
03:53AM 52.1038 -25.7154 89° East 527 606 34,000  Level FlightAware Transoceanic
03:54AM 52.1050 -25.4769 90° East 527 606 34,000  Level FlightAware Transoceanic
03:55AM 52.1057 -25.2385 90° East 527 606 34,000  Level FlightAware Transoceanic
03:56AM 52.1059 -25.0000 90° East 527 606 34,000  Level FlightAware Transoceanic
03:57AM 52.1057 -24.7615 90° East 527 606 34,000  Level FlightAware Transoceanic
03:58AM 52.1050 -24.5231 90° East 527 606 34,000  Level FlightAware Transoceanic
03:59AM 52.1038 -24.2846 91° East 527 606 34,000  Level FlightAware Transoceanic
04:00AM 52.1021 -24.0462 91° East 527 606 34,000  Level FlightAware Transoceanic
04:01AM 52.0999 -23.8078 91° East 527 606 34,000  Level FlightAware Transoceanic
04:02AM 52.0973 -23.5693 91° East 527 606 34,000  Level FlightAware Transoceanic
04:03AM 52.0941 -23.3310 91° East 527 606 34,000  Level FlightAware Transoceanic
04:04AM 52.0905 -23.0927 92° East 527 606 34,000  Level FlightAware Transoceanic
04:05AM 52.0864 -22.8544 92° East 527 606 34,000  Level FlightAware Transoceanic
04:06AM 52.0819 -22.6161 92° East 527 606 34,000  Level FlightAware Transoceanic
04:07AM 52.0768 -22.3780 92° East 527 606 34,000  Level FlightAware Transoceanic
04:08AM 52.0713 -22.1398 92° East 527 606 34,000  Level FlightAware Transoceanic
04:09AM 52.0653 -21.9017 92° East 527 606 34,000  Level FlightAware Transoceanic
04:10AM 52.0588 -21.6637 93° East 527 606 34,000  Level FlightAware Transoceanic
04:11AM 52.0518 -21.4258 93° East 527 606 34,000  Level FlightAware Transoceanic
04:12AM 52.0444 -21.1880 93° East 527 606 34,000  Level FlightAware Transoceanic
04:13AM 52.0365 -20.9502 93° East 527 606 34,000  Level FlightAware Transoceanic
04:14AM 52.0281 -20.7125 93° East 527 606 34,000  Level FlightAware Transoceanic
04:15AM 52.0192 -20.4749 94° East 527 606 34,000  Level FlightAware Transoceanic
04:16AM 52.0098 -20.2374 94° East 527 606 34,000  Level FlightAware Transoceanic
04:17AM 52.0004 -20.0099 94° East  Level FlightAware Approximate
04:18AM 51.9905 -19.7825 94° East  Level FlightAware Approximate
04:19AM 51.9697 -19.7978 104° East  Level FlightAware Approximate
04:20AM 51.9360 -19.5767 104° East  Level FlightAware Approximate
04:21AM 51.9020 -19.3559 104° East  Level FlightAware Approximate
04:22AM 51.8675 -19.1354 104° East  Level FlightAware Approximate
04:23AM 51.8327 -18.9153 104° East  Level FlightAware Approximate
04:24AM 51.7974 -18.6955 104° East  Level FlightAware Approximate
04:25AM 51.7617 -18.4761 105° East  Level FlightAware Approximate
04:26AM 51.7257 -18.2570 105° East  Level FlightAware Approximate
04:27AM 51.6892 -18.0382 105° East  Level FlightAware Approximate
04:28AM 51.6522 -17.8199 105° East  Level FlightAware Approximate
04:29AM 51.6149 -17.6018 105° East  Level FlightAware Approximate
04:30AM 51.5772 -17.3842 105° East  Level FlightAware Approximate
04:31AM 51.5391 -17.1669 106° East  Level FlightAware Approximate
04:32AM 51.5006 -16.9499 106° East  Level FlightAware Approximate
04:33AM 51.4617 -16.7334 106° East  Level FlightAware Approximate
04:34AM 51.4224 -16.5172 106° East  Level FlightAware Approximate
04:35AM 51.3827 -16.3013 106° East  Level FlightAware Approximate
04:36AM 51.3426 -16.0859 107° East  Level FlightAware Approximate
04:37AM 51.3021 -15.8708 107° East  Level FlightAware Approximate
04:38AM 51.2612 -15.6561 107° East  Level FlightAware Approximate
04:39AM 51.2199 -15.4418 107° East  Level FlightAware Approximate
04:40AM 51.1782 -15.2279 107° East  Level FlightAware Approximate
04:41AM 51.1362 -15.0144 107° East  Level FlightAware Approximate
04:42AM 51.0959 -14.8001 107° East  Level FlightAware Approximate
04:43AM 51.0555 -14.5862 107° East  Level FlightAware Approximate
04:44AM 51.0145 -14.3727 108° East  Level FlightAware Approximate
04:45AM 50.9713 -14.1605 108° East  Level FlightAware Approximate
04:46AM 50.9277 -13.9487 108° East  Level FlightAware Approximate
04:47AM 50.8838 -13.7373 108° East  Level FlightAware Approximate
04:48AM 50.8394 -13.5263 108° East  Level FlightAware Approximate
04:49AM 50.7947 -13.3157 108° East  Level FlightAware Approximate
04:50AM 50.7496 -13.1055 109° East  Level FlightAware Approximate
04:51AM 50.7041 -12.8957 109° East  Level FlightAware Approximate
04:52AM 50.6583 -12.6863 109° East  Level FlightAware Approximate
04:53AM 50.6121 -12.4773 109° East  Level FlightAware Approximate
04:54AM 50.5655 -12.2688 109° East  Level FlightAware Approximate
04:55AM 50.5183 -12.0607 110° East  Level FlightAware Approximate
04:56AM 50.4707 -11.8532 110° East  Level FlightAware Approximate
04:57AM 50.4227 -11.6460 110° East  Level FlightAware Approximate
04:58AM 50.3743 -11.4393 110° East  Level FlightAware Approximate
04:59AM 50.3256 -11.2330 110° East  Level FlightAware Approximate
05:00AM 50.2765 -11.0271 110° East  Level FlightAware Approximate
05:01AM 50.2271 -10.8216 111° Southeast  Level FlightAware Approximate
05:02AM 50.1773 -10.6166 111° Southeast  Level FlightAware Approximate
05:03AM 50.1271 -10.4120 111° Southeast  Level FlightAware Approximate
05:04AM 50.0766 -10.2078 111° Southeast  Level FlightAware Approximate
05:05AM 50.0257 -10.0041 111° Southeast  Level FlightAware Approximate
05:06AM 49.9744 -9.8008 111° Southeast  Level FlightAware Approximate
05:07AM 49.9228 -9.5979 111° Southeast  Level FlightAware Approximate
05:08AM 49.8709 -9.3954 112° Southeast  Level FlightAware Approximate
05:08AM 49.9088 -8.9795 112° Southeast 490 564 35,500  Level FlightAware UK
05:09AM 49.8846 -8.9209 123° Southeast 490 564 35,500  Level FlightAware UK
05:09AM 49.8604 -8.8622 123° Southeast 486 559 35,500  Level FlightAware UK
05:09AM 49.8364 -8.8036 122° Southeast 488 562 35,500  Level FlightAware UK
05:09AM 49.8122 -8.7452 123° Southeast 488 562 35,500  Level FlightAware UK
05:10AM 49.7879 -8.6868 123° Southeast 486 559 35,500  Level FlightAware UK
05:10AM 49.7635 -8.6285 123° Southeast 486 559 35,500  Level FlightAware UK
05:10AM 49.7390 -8.5703 123° Southeast 486 559 35,500  Level FlightAware UK
05:11AM 49.7146 -8.5121 123° Southeast 486 559 35,500  Level FlightAware UK
05:11AM 49.6901 -8.4539 123° Southeast 488 562 35,500  Level FlightAware UK
05:11AM 49.6656 -8.3958 123° Southeast 488 562 35,500  Level FlightAware UK
05:12AM 49.6413 -8.3375 123° Southeast 488 562 35,500  Level FlightAware UK
05:12AM 49.6168 -8.2795 123° Southeast 486 559 35,500  Level FlightAware UK
05:12AM 49.5922 -8.2215 123° Southeast 488 562 35,500  Level FlightAware UK
05:12AM 49.5675 -8.1636 123° Southeast 488 562 35,500  Level FlightAware UK
05:13AM 49.5429 -8.1057 123° Southeast 488 562 35,500  Level FlightAware UK
05:13AM 49.5180 -8.0470 123° Southeast 490 564 35,500  Level FlightAware UK
05:13AM 49.4948 -7.9879 121° Southeast 488 562 35,500  Level FlightAware UK
05:14AM 49.4761 -7.9258 115° Southeast 486 559 35,500  Level FlightAware UK
05:14AM 49.4567 -7.8645 116° Southeast 486 559 35,500  Level FlightAware UK
05:14AM 49.4380 -7.8027 115° Southeast 484 557 35,500  Level FlightAware UK
05:15AM 49.4198 -7.7408 114° Southeast 482 555 35,500  Level FlightAware UK
05:15AM 49.4019 -7.6787 114° Southeast 484 557 35,500  Level FlightAware UK
05:15AM 49.3842 -7.6163 114° Southeast 484 557 35,500  Level FlightAware UK
05:15AM 49.3665 -7.5538 113° Southeast 482 555 35,500  Level FlightAware UK
05:16AM 49.3487 -7.4915 114° Southeast 484 557 35,500  Level FlightAware UK
05:16AM 49.3313 -7.4287 113° Southeast 484 557 35,500  Level FlightAware UK
05:16AM 49.3136 -7.3660 113° Southeast 484 557 35,500  Level FlightAware UK
05:17AM 49.2956 -7.3034 114° Southeast 488 562 35,500  Level FlightAware UK
05:17AM 49.2776 -7.2408 114° Southeast 490 564 35,500  Level FlightAware UK
05:17AM 49.2596 -7.1783 114° Southeast 492 566 35,500  Level FlightAware UK
05:18AM 49.2415 -7.1159 114° Southeast 494 568 35,500  Level FlightAware UK
05:18AM 49.2234 -7.0534 114° Southeast 490 564 35,500  Level FlightAware UK
05:18AM 49.2054 -6.9910 114° Southeast 490 564 35,500  Level FlightAware UK
05:18AM 49.1874 -6.9286 114° Southeast 488 562 35,500  Level FlightAware UK
05:19AM 49.1690 -6.8657 114° Southeast 488 562 35,500  Level FlightAware UK
05:19AM 49.1508 -6.8035 114° Southeast 488 562 35,500  Level FlightAware UK
05:19AM 49.1327 -6.7416 114° Southeast 492 566 35,500  Level FlightAware UK
05:20AM 49.1145 -6.6795 114° Southeast 494 568 35,500  Level FlightAware UK
05:20AM 49.0962 -6.6174 114° Southeast 494 568 35,500  Level FlightAware UK
05:20AM 49.0778 -6.5554 114° Southeast 494 568 35,500  Level FlightAware UK
05:21AM 49.0595 -6.4934 114° Southeast 494 568 35,500  Level FlightAware UK
05:21AM 49.0412 -6.4315 114° Southeast 496 571 35,500  Level FlightAware UK
05:21AM 49.0228 -6.3697 114° Southeast 496 571 35,500  Level FlightAware UK
05:21AM 49.0042 -6.3081 115° Southeast 496 571 35,500  Level FlightAware UK
05:22AM 48.9858 -6.2467 115° Southeast 496 571 35,500  Level FlightAware UK
05:22AM 48.9674 -6.1855 115° Southeast 496 571 35,500  Level FlightAware UK
05:22AM 48.9490 -6.1246 115° Southeast 496 571 35,500  Level FlightAware UK
05:23AM 48.9307 -6.0639 115° Southeast 494 568 35,500  Level FlightAware UK
05:23AM 48.9126 -6.0035 114° Southeast 492 566 35,500  Level FlightAware UK
05:23AM 48.8882 -5.9230 115° Southeast 488 562 35,500  Level FlightAware UK
05:24AM 48.8702 -5.8637 115° Southeast 488 562 35,500  Level FlightAware UK
05:24AM 48.8517 -5.8031 115° Southeast 490 564 35,500  Level FlightAware UK
05:24AM 48.8333 -5.7431 115° Southeast 490 564 35,500  Level FlightAware UK
05:25AM 48.8148 -5.6831 115° Southeast 490 564 35,500  Level FlightAware UK
05:25AM 48.7963 -5.6232 115° Southeast 490 564 35,500  Level FlightAware UK
05:25AM 48.7779 -5.5632 115° Southeast 490 564 35,500  Level FlightAware UK
05:26AM 48.7223 -5.3834 115° Southeast 492 566 35,500  Level FlightAware UK
05:26AM 48.6975 -5.3036 115° Southeast 494 568 35,500  Level FlightAware UK
05:27AM 48.6726 -5.2240 115° Southeast 492 566 35,500  Level FlightAware UK
05:27AM 48.6414 -5.1247 115° Southeast 492 566 35,500  Level FlightAware UK
05:28AM 48.6164 -5.0451 115° Southeast 490 564 35,500  Level FlightAware UK
05:28AM 48.5973 -4.9849 116° Southeast 492 566 35,500  Level FlightAware UK
05:28AM 48.5783 -4.9252 116° Southeast 492 566 35,500  Level FlightAware UK
05:29AM 48.5593 -4.8656 116° Southeast 494 568 35,500  Level FlightAware UK
05:29AM 48.5276 -4.7662 116° Southeast 494 568 35,500  Level FlightAware UK
05:30AM 48.4641 -4.5671 116° Southeast 492 566 35,500  Level FlightAware UK
05:31AM 48.4191 -4.4276 116° Southeast 494 568 35,500  Level FlightAware UK
05:31AM 48.3802 -4.3072 116° Southeast 494 568 35,500  Level FlightAware UK
05:32AM 48.3608 -4.2473 116° Southeast 496 571 35,500  Level FlightAware UK
05:32AM 48.3285 -4.1472 116° Southeast 498 573 35,500  Level FlightAware UK
05:33AM 48.2806 -4.0324 122° Southeast 498 573 35,500  Level FlightAware UK
05:35AM 48.1927 -3.7374 114° Southeast  Level FlightAware Approximate
05:42AM 47.7820 -2.4037 114° Southeast  Level FlightAware Approximate
05:43AM 47.7221 -2.2148 115° Southeast  Level FlightAware Approximate
05:44AM 47.6618 -2.0265 115° Southeast  Level FlightAware Approximate
05:45AM 47.6013 -1.8386 115° Southeast  Level FlightAware Approximate
05:46AM 47.5404 -1.6511 116° Southeast  Level FlightAware Approximate
05:47AM 47.4793 -1.4640 116° Southeast  Level FlightAware Approximate
05:48AM 47.4178 -1.2774 116° Southeast  Level FlightAware Approximate
05:49AM 47.3560 -1.0912 116° Southeast  Level FlightAware Approximate
05:50AM 47.2939 -0.9055 116° Southeast  Level FlightAware Approximate
05:51AM 47.2316 -0.7201 116° Southeast  Level FlightAware Approximate
05:52AM 47.1689 -0.5353 116° Southeast  Level FlightAware Approximate
05:53AM 47.1060 -0.3508 117° Southeast  Level FlightAware Approximate
05:54AM 47.0427 -0.1668 117° Southeast  Level FlightAware Approximate
05:55AM 46.9791 0.0167 117° Southeast  Level FlightAware Approximate
05:56AM 46.9154 0.1995 117° Southeast  Level FlightAware Approximate
05:57AM 46.8514 0.3819 117° Southeast  Level FlightAware Approximate
05:58AM 46.7871 0.5639 117° Southeast  Level FlightAware Approximate
05:59AM 46.7225 0.7454 117° Southeast  Level FlightAware Approximate
06:00AM 46.6576 0.9265 118° Southeast  Level FlightAware Approximate
06:01AM 46.5924 1.1071 118° Southeast  Level FlightAware Approximate
06:02AM 46.5270 1.2873 118° Southeast  Level FlightAware Approximate
06:03AM 46.4612 1.4671 118° Southeast  Level FlightAware Approximate
06:04AM 46.3952 1.6464 118° Southeast  Level FlightAware Approximate
06:05AM 46.3289 1.8253 118° Southeast  Level FlightAware Approximate
06:06AM 46.2623 2.0038 118° Southeast  Level FlightAware Approximate
06:07AM 46.1955 2.1818 118° Southeast  Level FlightAware Approximate
06:08AM 46.1283 2.3594 119° Southeast  Level FlightAware Approximate
06:09AM 46.0609 2.5366 119° Southeast  Level FlightAware Approximate
06:10AM 45.9932 2.7133 119° Southeast  Level FlightAware Approximate
06:11AM 45.9253 2.8896 119° Southeast  Level FlightAware Approximate
06:12AM 45.8571 3.0655 119° Southeast  Level FlightAware Approximate
06:13AM 45.7886 3.2410 119° Southeast  Level FlightAware Approximate
06:14AM 45.7198 3.4160 119° Southeast  Level FlightAware Approximate
06:15AM 45.6508 3.5905 119° Southeast  Level FlightAware Approximate
06:16AM 45.5815 3.7647 120° Southeast  Level FlightAware Approximate
06:17AM 45.5120 3.9384 120° Southeast  Level FlightAware Approximate
06:18AM 45.4421 4.1117 120° Southeast  Level FlightAware Approximate
06:19AM 45.3721 4.2846 120° Southeast  Level FlightAware Approximate
06:20AM 45.3017 4.4570 120° Southeast  Level FlightAware Approximate
06:21AM 45.2311 4.6290 120° Southeast  Level FlightAware Approximate
06:22AM 45.1603 4.8006 120° Southeast  Level FlightAware Approximate
06:23AM 45.0892 4.9717 120° Southeast  Level FlightAware Approximate
06:24AM 45.0178 5.1424 121° Southeast  Level FlightAware Approximate
06:25AM 44.9462 5.3127 121° Southeast  Level FlightAware Approximate
06:26AM 44.8743 5.4826 121° Southeast  Level FlightAware Approximate
06:27AM 44.8022 5.6521 121° Southeast  Level FlightAware Approximate
06:28AM 44.7298 5.8211 121° Southeast  Level FlightAware Approximate
06:29AM 44.6572 5.9897 121° Southeast  Level FlightAware Approximate
06:30AM 44.5844 6.1565 122° Southeast  Level FlightAware Approximate
06:31AM 44.5104 6.3236 122° Southeast  Level FlightAware Approximate
06:32AM 44.4362 6.4902 122° Southeast  Level FlightAware Approximate
06:33AM 44.3618 6.6563 122° Southeast  Level FlightAware Approximate
06:34AM 44.2871 6.8221 122° Southeast  Level FlightAware Approximate
06:35AM 44.2122 6.9874 122° Southeast  Level FlightAware Approximate
06:36AM 44.1371 7.1524 122° Southeast  Level FlightAware Approximate
06:37AM 44.0614 7.3166 123° Southeast  Level FlightAware Approximate
06:38AM 43.9852 7.4802 123° Southeast  Level FlightAware Approximate
06:39AM 43.9088 7.6433 123° Southeast  Level FlightAware Approximate
06:40AM 43.8321 7.8060 123° Southeast  Level FlightAware Approximate
06:41AM 43.7552 7.9683 123° Southeast  Level FlightAware Approximate
06:42AM 43.6781 8.1302 123° Southeast  Level FlightAware Approximate
06:43AM 43.6007 8.2917 123° Southeast  Level FlightAware Approximate
06:44AM 43.5232 8.4528 124° Southeast  Level FlightAware Approximate
06:45AM 43.4454 8.6134 124° Southeast  Level FlightAware Approximate
06:46AM 43.3674 8.7737 124° Southeast  Level FlightAware Approximate
06:47AM 43.2891 8.9335 124° Southeast  Level FlightAware Approximate
06:48AM 43.2107 9.0929 124° Southeast  Level FlightAware Approximate
06:49AM 43.1320 9.2519 124° Southeast  Level FlightAware Approximate
06:50AM 43.0531 9.4105 124° Southeast  Level FlightAware Approximate
06:51AM 42.9739 9.5686 124° Southeast  Level FlightAware Approximate
06:52AM 42.8945 9.7263 124° Southeast  Level FlightAware Approximate
06:53AM 42.8149 9.8837 125° Southeast  Level FlightAware Approximate
06:54AM 42.7350 10.0406 125° Southeast  Level FlightAware Approximate
06:55AM 42.6550 10.1971 125° Southeast  Level FlightAware Approximate
06:56AM 42.5747 10.3532 125° Southeast  Level FlightAware Approximate
06:57AM 42.4943 10.5089 125° Southeast  Level FlightAware Approximate
06:58AM 42.4136 10.6642 125° Southeast  Level FlightAware Approximate
06:59AM 42.3327 10.8191 125° Southeast  Level FlightAware Approximate
07:00AM 42.2516 10.9736 125° Southeast  Level FlightAware Approximate
07:01AM 42.1703 11.1277 125° Southeast  Level FlightAware Approximate
07:02AM 42.0888 11.2814 126° Southeast  Level FlightAware Approximate
07:03AM 42.0053 11.4327 134° Southeast  Level FlightAware Approximate
07:04AM 41.9084 11.5689 134° Southeast  Level FlightAware Approximate
07:05AM 41.8114 11.7047 134° Southeast  Level FlightAware Approximate
07:06AM 41.7142 11.8400 134° Southeast  Level FlightAware Approximate
07:07AM 41.6169 11.9750 134° Southeast  Level FlightAware Approximate
07:08AM 41.5194 12.1095 134° Southeast  Level FlightAware Approximate
07:09AM 41.4217 12.2437 134° Southeast  Level FlightAware Approximate
07:10AM 41.3239 12.3774 134° Southeast  Level FlightAware Approximate
07:11AM 41.2259 12.5107 134° Southeast  Level FlightAware Approximate
07:12AM 41.1268 12.6450 134° Southeast  Level FlightAware Approximate
07:13AM 41.0275 12.7789 134° Southeast  Level FlightAware Approximate
07:14AM 40.9281 12.9123 135° Southeast  Level FlightAware Approximate
07:15AM 40.8655 13.0764 110° East  Level FlightAware Approximate
07:16AM 40.8172 13.2522 110° East  Level FlightAware Approximate
07:17AM 40.7687 13.4279 110° East  Level FlightAware Approximate
07:18AM 40.7199 13.6033 110° East  Level FlightAware Approximate
07:19AM 40.6708 13.7784 110° East  Level FlightAware Approximate
07:20AM 40.6215 13.9533 110° East  Level FlightAware Approximate
07:21AM 40.5719 14.1279 110° East  Level FlightAware Approximate
07:22AM 40.5220 14.3023 111° Southeast  Level FlightAware Approximate
07:23AM 40.4719 14.4764 111° Southeast  Level FlightAware Approximate
07:24AM 40.4215 14.6502 111° Southeast  Level FlightAware Approximate
07:25AM 40.3708 14.8238 111° Southeast  Level FlightAware Approximate
07:26AM 40.3199 14.9971 111° Southeast  Level FlightAware Approximate
07:27AM 40.2688 15.1702 111° Southeast  Level FlightAware Approximate
07:28AM 40.2170 15.3428 112° Southeast  Level FlightAware Approximate
07:29AM 40.1648 15.5150 112° Southeast  Level FlightAware Approximate
07:30AM 40.1124 15.6870 112° Southeast  Level FlightAware Approximate
07:31AM 40.0597 15.8588 112° Southeast  Level FlightAware Approximate
07:32AM 40.0068 16.0303 112° Southeast  Level FlightAware Approximate
07:33AM 39.9536 16.2015 112° Southeast  Level FlightAware Approximate
07:34AM 39.9001 16.3724 112° Southeast  Level FlightAware Approximate
07:35AM 39.8464 16.5431 112° Southeast  Level FlightAware Approximate
07:36AM 39.7925 16.7135 112° Southeast  Level FlightAware Approximate
07:37AM 39.7383 16.8836 112° Southeast  Level FlightAware Approximate
07:38AM 39.6838 17.0535 113° Southeast  Level FlightAware Approximate
07:39AM 39.6291 17.2231 113° Southeast  Level FlightAware Approximate
07:40AM 39.5742 17.3924 113° Southeast  Level FlightAware Approximate
07:41AM 39.5193 17.5616 113° Southeast  Level FlightAware Approximate
07:42AM 39.4644 17.7307 113° Southeast  Level FlightAware Approximate
07:43AM 39.4092 17.8995 113° Southeast  Level FlightAware Approximate
07:44AM 39.3537 18.0680 113° Southeast  Level FlightAware Approximate
07:45AM 39.2981 18.2362 113° Southeast  Level FlightAware Approximate
07:46AM 39.2422 18.4042 113° Southeast  Level FlightAware Approximate
07:47AM 39.1860 18.5720 113° Southeast  Level FlightAware Approximate
07:48AM 39.1296 18.7394 113° Southeast  Level FlightAware Approximate
07:49AM 39.0730 18.9066 114° Southeast  Level FlightAware Approximate
07:50AM 39.0161 19.0735 114° Southeast  Level FlightAware Approximate
07:51AM 38.9590 19.2402 114° Southeast  Level FlightAware Approximate
07:52AM 38.9017 19.4065 114° Southeast  Level FlightAware Approximate
07:53AM 38.8441 19.5727 114° Southeast  Level FlightAware Approximate
07:54AM 38.7863 19.7385 114° Southeast  Level FlightAware Approximate
07:55AM 38.7282 19.9041 114° Southeast  Level FlightAware Approximate
07:56AM 38.6699 20.0694 114° Southeast  Level FlightAware Approximate
07:57AM 38.6114 20.2344 114° Southeast  Level FlightAware Approximate
07:58AM 38.5527 20.3992 114° Southeast  Level FlightAware Approximate
07:59AM 38.4936 20.5639 115° Southeast  Level FlightAware Approximate
08:00AM 38.4343 20.7284 115° Southeast  Level FlightAware Approximate
08:01AM 38.3748 20.8927 115° Southeast  Level FlightAware Approximate
08:02AM 38.3150 21.0566 115° Southeast  Level FlightAware Approximate
08:03AM 38.2550 21.2203 115° Southeast  Level FlightAware Approximate
08:04AM 38.1948 21.3837 115° Southeast  Level FlightAware Approximate
08:05AM 38.1344 21.5469 115° Southeast  Level FlightAware Approximate
08:06AM 38.0737 21.7097 115° Southeast  Level FlightAware Approximate
08:07AM 38.0128 21.8724 115° Southeast  Level FlightAware Approximate
08:08AM 37.9517 22.0347 115° Southeast  Level FlightAware Approximate
08:09AM 37.8903 22.1968 116° Southeast  Level FlightAware Approximate
08:10AM 37.8288 22.3586 116° Southeast  Level FlightAware Approximate
08:11AM 37.7670 22.5201 116° Southeast  Level FlightAware Approximate
08:12AM 37.7050 22.6814 116° Southeast  Level FlightAware Approximate
08:13AM 37.6428 22.8424 116° Southeast  Level FlightAware Approximate
08:14AM 37.5800 23.0029 116° Southeast  Level FlightAware Approximate
08:15AM 37.5171 23.1632 116° Southeast  Level FlightAware Approximate
08:16AM 37.4538 23.3231 116° Southeast  Level FlightAware Approximate
08:17AM 37.3904 23.4828 117° Southeast  Level FlightAware Approximate
08:17AM 36.5860 24.1980 117° Southeast 517 595 37,000  Level FlightAware
08:18AM 37.3268 23.6423 117° Southeast  Level FlightAware Approximate
08:18AM 36.5240 24.3360 119° Southeast 516 594 37,000  Level FlightAware
08:19AM 36.4780 24.4350 120° Southeast 518 596 37,000  Level FlightAware
08:20AM 36.4080 24.5880 120° Southeast 520 598 37,000  Level FlightAware
08:21AM 36.3620 24.6870 120° Southeast 522 601 37,000  Level FlightAware
08:21AM 36.3130 24.7920 120° Southeast 521 600 37,000 60 Level FlightAware
08:22AM 36.2600 24.9060 120° Southeast 522 601 37,100  Climbing FlightAware
08:23AM 36.2120 25.0090 120° Southeast 525 604 37,000 -120 Descending FlightAware
08:23AM 36.1610 25.1170 120° Southeast 524 603 37,000  Level FlightAware
08:24AM 36.1190 25.2110 119° Southeast 524 603 37,000  Level FlightAware
08:25AM 36.0570 25.3390 121° Southeast 526 605 37,000  Level FlightAware
08:25AM 36.0090 25.4410 120° Southeast 526 605 37,000  Level FlightAware
08:26AM 35.9710 25.5230 120° Southeast 526 605 37,000  Level FlightAware
08:27AM 35.9210 25.6290 120° Southeast 526 605 37,000  Level FlightAware
08:28AM 35.8840 25.7080 120° Southeast 526 605 37,000  Level FlightAware
08:28AM 35.8340 25.8140 120° Southeast 526 605 37,000  Level FlightAware
08:29AM 35.7970 25.8940 120° Southeast 526 605 37,000  Level FlightAware
08:30AM 35.7470 26.0000 120° Southeast 526 605 37,000  Level FlightAware
08:31AM 35.6960 26.1100 120° Southeast 526 605 37,000  Level FlightAware
08:31AM 35.6580 26.1900 120° Southeast 526 605 37,000  Level FlightAware
08:32AM 35.5950 26.3240 120° Southeast 526 605 37,000  Level FlightAware
08:33AM 35.5580 26.4030 120° Southeast 526 605 37,000  Level FlightAware
08:34AM 35.5080 26.5090 120° Southeast 526 605 37,000  Level FlightAware
08:34AM 35.4690 26.5930 120° Southeast 526 605 37,000  Level FlightAware
08:35AM 35.4150 26.7070 120° Southeast 526 605 37,000  Level FlightAware
08:38AM 35.2714 27.0948 114° Southeast  Level Estimated
08:39AM 35.2124 27.2527 115° Southeast  Level Estimated
08:40AM 35.1533 27.4104 115° Southeast  Level Estimated
08:41AM 35.0939 27.5678 115° Southeast  Level Estimated
08:42AM 35.0343 27.7250 115° Southeast  Level Estimated
08:42AM 34.7620 28.0010 115° Southeast 535 616 37,000  Level FlightAware
08:43AM 34.6950 28.1430 120° Southeast 535 616 37,000  Level FlightAware
08:44AM 34.6560 28.2250 120° Southeast 535 616 37,000  Level FlightAware
08:44AM 34.6170 28.3070 120° Southeast 535 616 37,000  Level FlightAware
08:45AM 34.5640 28.4170 120° Southeast 535 616 37,000  Level FlightAware
08:48AM 34.4191 28.8189 114° Southeast  Level Estimated
08:48AM 34.3720 28.7710 114° Southeast 526 605 37,000  Level FlightAware
08:49AM 34.3320 28.8510 121° Southeast 526 605 37,000  Level FlightAware
08:49AM 34.2810 28.9540 121° Southeast 526 605 37,000  Level FlightAware
08:50AM 34.2420 29.0330 121° Southeast 526 605 37,000  Level FlightAware
08:51AM 34.2020 29.1120 121° Southeast 526 605 37,000  Level FlightAware
08:51AM 34.1500 29.2170 121° Southeast 526 605 37,000  Level FlightAware
08:52AM 33.9610 29.5640 123° Southeast 516 594 37,000  Level FlightAware
08:53AM 33.9230 29.6390 121° Southeast 516 594 37,000  Level FlightAware
08:54AM 33.8510 29.7740 123° Southeast 517 595 37,000  Level FlightAware
08:55AM 33.7970 29.8780 122° Southeast 517 595 37,000  Level FlightAware
08:55AM 33.7230 30.0190 122° Southeast 517 595 37,000  Level FlightAware
08:56AM 33.7180 30.1200 93° East 555 639 37,000  Level FlightAware
08:57AM 33.7150 30.2870 91° East 555 639 37,000  Level FlightAware
08:58AM 33.7120 30.5510 91° East 557 641 37,000  Level FlightAware
08:59AM 33.7100 30.6870 91° East 556 640 37,000  Level FlightAware
09:00AM 33.7080 30.8040 91° East 556 640 37,000  Level FlightAware
09:00AM 33.7060 30.9370 91° East 555 639 37,000  Level FlightAware
09:01AM 33.7030 31.0730 91° East 554 638 37,000  Level FlightAware
09:02AM 33.7010 31.1960 91° East 553 636 37,000  Level FlightAware
09:02AM 33.6980 31.3190 92° East 552 635 37,000  Level FlightAware
09:03AM 33.6950 31.4620 91° East 552 635 37,000  Level FlightAware
09:04AM 33.6920 31.5790 92° East 552 635 37,000  Level FlightAware
09:05AM 33.6890 31.7220 91° East 553 636 37,000  Level FlightAware
09:05AM 33.6860 31.8460 92° East 554 638 37,000  Level FlightAware
09:06AM 33.6830 31.9610 92° East 553 636 37,000  Level FlightAware
09:07AM 33.6790 32.1040 92° East 553 636 37,000  Level FlightAware
09:07AM 33.6760 32.2230 92° East 550 633 37,000  Level FlightAware
09:08AM 33.6720 32.3620 92° East 548 631 37,000 60 Level FlightAware
09:09AM 33.6590 32.4850 97° East 535 616 37,100  Climbing FlightAware
09:09AM 33.6140 32.5850 118° Southeast 507 583 37,000 -120 Descending FlightAware
09:10AM 33.5290 32.7100 129° Southeast 511 588 37,000 -720 Level FlightAware
09:11AM 33.4500 32.8260 129° Southeast 504 580 35,700 -1,680 Descending FlightAware
09:12AM 33.3810 32.9250 130° Southeast 492 566 34,200 -2,340 Descending FlightAware
09:13AM 33.3140 33.0200 130° Southeast 492 566 32,400 -2,640 Descending FlightAware
09:13AM 33.2560 33.1040 130° Southeast 492 566 30,500 -2,400 Descending FlightAware
09:14AM 33.1960 33.1890 130° Southeast 479 551 29,200 -1,800 Descending FlightAware
09:15AM 33.1600 33.2400 130° Southeast 464 534 28,500 -1,500 Descending FlightAware
09:17AM 32.9840 33.4952 129° Southeast  Level Estimated
09:17AM 32.9830 33.4920 129° Southeast 444 511 25,300  Level FlightAware
09:17AM 32.9440 33.5490 129° Southeast 444 511 24,500 -1,920 Descending FlightAware
09:18AM 32.9130 33.6480 110° East 446 513 23,000 -2,040 Descending FlightAware
09:19AM 32.9100 33.7490 92° East 433 498 21,700 -1,380 Descending FlightAware
09:19AM 32.9070 33.8480 92° East 396 456 21,100 -960 Descending FlightAware
09:20AM 32.8930 33.9100 105° East 379 436 20,500 -1,320 Descending FlightAware
09:21AM 32.8450 33.9740 132° Southeast 354 407 19,500 -1,800 Descending FlightAware
09:21AM 32.7880 34.0240 144° Southeast 351 404 18,100 -1,800 Descending FlightAware
09:22AM 32.7160 34.0830 145° Southeast 346 398 16,600 -1,740 Descending FlightAware
09:23AM 32.6670 34.1230 145° Southeast 344 396 15,500 -1,680 Descending FlightAware
09:24AM 32.6030 34.1770 145° Southeast 337 388 14,200 -1,500 Descending FlightAware
09:24AM 32.5670 34.2070 145° Southeast 328 377 13,600 -1,380 Descending FlightAware
09:25AM 32.5320 34.2350 146° Southeast 324 373 12,900 -1,140 Descending FlightAware
09:25AM 32.4930 34.2680 144° Southeast 321 369 12,100 -1,560 Descending FlightAware
09:26AM 32.4130 34.3320 146° Southeast 315 362 10,400 -2,040 Descending FlightAware
09:27AM 32.3800 34.3580 146° Southeast 313 360 9,700 -960 Descending FlightAware
09:27AM 32.3410 34.3890 146° Southeast 312 359 9,400 -1,080 Descending FlightAware
09:28AM 32.3180 34.4070 147° Southeast 297 342 8,800 -840 Descending FlightAware
09:28AM 32.2920 34.4290 144° Southeast 297 342 8,800  Level FlightAware
09:28AM 32.2800 34.4380 148° Southeast 297 342 8,800  Level FlightAware
09:28AM 32.2690 34.4480 142° Southeast 297 342 8,800  Level FlightAware
09:29AM 32.2340 34.4760 146° Southeast 297 342 8,800  Level FlightAware
09:29AM 32.2230 34.4860 142° Southeast 297 342 8,800  Level FlightAware
09:32AM 32.0397 34.8004 125° Southeast  Level FlightAware Approximate
09:33AM 32.0000 34.8667 125° Southeast  Level FlightAware Approximate
09:34AM 32.0095 34.8769 125° Southeast  Level Estimated
09:35AM 32.0095 34.8769 125° Southeast  Level Estimated
09:36AM 32.0095 34.8769 125° Southeast  Level Estimated
09:37AM 32.0095 34.8769 125° Southeast  Level Estimated
09:38AM 32.0095 34.8769 125° Southeast  Level Estimated
09:39AM 32.0095 34.8769 125° Southeast  Level Estimated
09:40AM 32.0095 34.8769 125° Southeast  Level Estimated